| Time | Avg. Air Temp | Dew Point | Avg. Rel Humidity | Avg. 2 Min Wind Speed | Max Gust Velocity | MGV Time | MGV Direction | Avg. Spot Wind Velocity |
|---|---|---|---|---|---|---|---|---|
| 2026-05-07 06:05:00 | 1° C | 1° C | 100% | 20 km/h | 26 km/h | 06:05:00 | NW | 19 km/h |
| 05:05:00 | 2° C | 2° C | 100% | 16 km/h | 21 km/h | 05:03:00 | W | 16 km/h |
| 04:05:00 | 2° C | 2° C | 100% | 18 km/h | 21 km/h | 04:04:00 | W | 18 km/h |
| 03:05:00 | 2° C | 2° C | 100% | 21 km/h | 26 km/h | 03:02:00 | NW | 21 km/h |
| 02:05:00 | 3° C | 2° C | 95% | 28 km/h | 33 km/h | 02:05:00 | W | 27 km/h |
| 01:05:00 | 3° C | 1° C | 86% | 20 km/h | 27 km/h | 01:04:00 | W | 21 km/h |
| 00:05:00 | 4° C | 1° C | 80% | 25 km/h | 31 km/h | 00:02:00 | W | 26 km/h |
| 23:05:00 | 4° C | 1° C | 77% | 26 km/h | 27 km/h | 23:05:00 | W | 26 km/h |
| 22:05:00 | 5° C | 1° C | 76% | 16 km/h | 23 km/h | 22:01:00 | W | 19 km/h |
| 21:05:00 | 4° C | 1° C | 80% | 17 km/h | 22 km/h | 21:03:00 | W | 18 km/h |
| 20:05:00 | 4° C | 1° C | 85% | 13 km/h | 22 km/h | 20:04:00 | NE | 16 km/h |
| 19:05:00 | 7° C | -1° C | 58% | 5 km/h | 10 km/h | 19:01:00 | W | 6 km/h |
| 18:05:00 | 8° C | -1° C | 51% | 5 km/h | 9 km/h | 18:05:00 | SW | 3 km/h |
| 17:05:00 | 8° C | -0° C | 55% | 9 km/h | 20 km/h | 17:01:00 | SW | 12 km/h |
| 16:05:00 | 7° C | -0° C | 58% | 16 km/h | 22 km/h | 16:01:00 | W | 18 km/h |
| 15:05:00 | 7° C | -0° C | 56% | 9 km/h | 16 km/h | 15:01:00 | W | 10 km/h |
| 14:05:00 | 6° C | -0° C | 62% | 13 km/h | 16 km/h | 14:04:00 | W | 12 km/h |
| 13:05:00 | 6° C | -1° C | 63% | 13 km/h | 15 km/h | 13:04:00 | S | 12 km/h |
| 12:05:00 | 6° C | -2° C | 57% | 11 km/h | 16 km/h | 12:02:00 | SW | 11 km/h |
| 11:05:00 | 5° C | -4° C | 53% | 11 km/h | 15 km/h | 11:01:00 | S | 12 km/h |
| 10:05:00 | 5° C | -4° C | 50% | 9 km/h | 12 km/h | 10:05:00 | S | 8 km/h |
| 09:05:00 | 5° C | -4° C | 49% | 8 km/h | 12 km/h | 09:04:00 | S | 9 km/h |
| 08:05:00 | 5° C | -3° C | 54% | 17 km/h | 20 km/h | 08:03:00 | W | 17 km/h |
| 07:05:00 | 6° C | -5° C | 47% | 20 km/h | 24 km/h | 07:01:00 | W | 19 km/h |
Subpeak Weather
| Time | Avg. Air Temp | Dew Point | Avg. Rel Humidity | Avg. 2 Min Wind Speed | Max Gust Velocity | MGV Time | MGV Direction | Avg. Spot Wind Velocity |
|---|---|---|---|---|---|---|---|---|
| 2026-05-07 06:05:00 | 1° C | 1° C | 100% | 20 km/h | 26 km/h | 06:05:00 | NW | 19 km/h |
| 06:00:00 | 1° C | 1° C | 100% | 18 km/h | 24 km/h | 06:00:00 | NW | 17 km/h |
| 05:55:00 | 1° C | 1° C | 100% | 17 km/h | 23 km/h | 05:51:00 | NW | 16 km/h |
| 05:50:00 | 1° C | 1° C | 100% | 17 km/h | 22 km/h | 05:48:00 | NW | 15 km/h |
| 05:45:00 | 1° C | 1° C | 100% | 17 km/h | 20 km/h | 05:45:00 | W | 14 km/h |
| 05:40:00 | 1° C | 1° C | 100% | 10 km/h | 14 km/h | 05:38:00 | NW | 11 km/h |
| 05:35:00 | 1° C | 1° C | 100% | 14 km/h | 18 km/h | 05:33:00 | W | 14 km/h |
| 05:30:00 | 1° C | 1° C | 100% | 14 km/h | 18 km/h | 05:30:00 | W | 13 km/h |
| 05:25:00 | 2° C | 1° C | 100% | 13 km/h | 16 km/h | 05:24:00 | W | 13 km/h |
| 05:20:00 | 2° C | 2° C | 100% | 11 km/h | 22 km/h | 05:16:00 | W | 14 km/h |
| 05:15:00 | 2° C | 1° C | 100% | 19 km/h | 22 km/h | 05:13:00 | W | 19 km/h |
| 05:10:00 | 2° C | 2° C | 100% | 19 km/h | 22 km/h | 05:10:00 | W | 17 km/h |
| 05:05:00 | 2° C | 2° C | 100% | 16 km/h | 21 km/h | 05:03:00 | W | 16 km/h |




